Butternut, WI (54514)

3:07 AM CDT on April 02, 2015 (GMT -0500)
Fifield West | | Change Station
CLOSE
Current Station
Personal Weather Station
Location: Park Falls, WI
Elevation: 1453 ft
Nearby Weather Stations

Elev 1453 ft 45.83 °N, 90.62 °W | Updated 8 minutes ago

Overcast
Overcast
51.8 °F
Feels Like 51.8 °F
N
5.8
Wind Variable Wind from WSW

Today
High -- | Low -- °F
--% Chance of Precip.
Yesterday
High -- | Low -- °F
Precip. -- in
6:40 AM 7:31 PM
Waxing Gibbous, 96% visible
Pressure 29.56 in
Visibility 10.0 miles
Clouds Mostly Cloudy 1000 ft
Mostly Cloudy 1500 ft
Dew Point 52 °F
Humidity 99%
Rainfall 0.01 in
Snow Depth Not available.
UV 0 out of 12
Pollen 6.90 out of 12
Air Quality Not available.
Flu Activity Not available.
METAR KPBH 020755Z AUTO 24006KT 10SM BKN010 BKN015 11/10 A2956 RMK AO2 T01070102

More Conditions Fewer Conditions

Pressure 29.56 in
Visibility 10.0 miles
Clouds Mostly Cloudy 1000 ft
Mostly Cloudy 1500 ft
Dew Point 52 °F
Humidity 99%
Rainfall 0.01 in
Snow Depth Not available.
UV 0 out of 12
Pollen 6.90 out of 12
Air Quality Not available.
Flu Activity Not available.
METAR KPBH 020755Z AUTO 24006KT 10SM BKN010 BKN015 11/10 A2956 RMK AO2 T01070102

More Conditions Fewer Conditions

10-Day Weather Forecast

Almanac

Astronomy

Apr. 02, 2015 Rise Set
Actual Time
Civil Twilight
Nautical Twilight
Astronomical Twilight
Moon
Length of Visible Light
Length of Day
Tomorrow will be .
, % of the Moon is Illuminated

Today's Extremes

State Highs State Lows

Community

WunderPhotos

Upload Photos

1,810,206 photos uploaded!

WunderBlogs® & News

Nearby

Air Quality

  Air Quality AQ Index Pollutant
Not available.

Snow Depth

Station Depth Elevation

Earthquake Activity

City Distance Mag. Time & Date
Minimum magnitude displayed is 2.5.

Coastal Water Temperatures

Place Temperature

Stations

Nearby Weather Stations

Station Location Temp. Windchill Dew Point Humidity Wind Precip. Elev Updated Type